createdAt,value
2019-03-22T00:00:17.422Z,58.60
2019-03-22T00:02:45.697Z,58.70
2019-03-22T00:05:14.518Z,58.60
2019-03-22T00:07:43.362Z,58.60
2019-03-22T00:10:11.619Z,58.60
2019-03-22T00:12:40.448Z,58.60
2019-03-22T00:15:08.769Z,58.60
2019-03-22T00:17:37.042Z,58.70
2019-03-22T00:20:06.941Z,58.60
2019-03-22T00:22:35.756Z,58.50
2019-03-22T00:25:06.821Z,58.60
2019-03-22T00:27:35.077Z,58.60
2019-03-22T00:30:06.336Z,58.60
2019-03-22T00:32:34.604Z,58.60
2019-03-22T00:35:03.030Z,58.60
2019-03-22T00:37:31.282Z,58.70
2019-03-22T00:39:59.548Z,58.70
2019-03-22T00:42:27.802Z,58.60
2019-03-22T00:44:56.073Z,58.50
2019-03-22T00:47:24.317Z,58.50
2019-03-22T00:49:52.584Z,58.50
2019-03-22T00:52:20.838Z,58.50
2019-03-22T00:54:49.105Z,58.50
2019-03-22T00:57:27.748Z,58.60
2019-03-22T00:59:47.354Z,58.40
2019-03-22T01:02:15.602Z,58.40
2019-03-22T01:04:44.433Z,58.50
2019-03-22T01:07:12.849Z,58.40
2019-03-22T01:09:41.115Z,58.50
2019-03-22T01:12:09.369Z,58.60
2019-03-22T01:14:37.634Z,59.10
2019-03-22T01:17:05.901Z,58.60
2019-03-22T01:19:34.193Z,58.60
2019-03-22T01:22:02.445Z,58.60
2019-03-22T01:24:30.693Z,59.20
2019-03-22T01:26:58.961Z,58.60
2019-03-22T01:29:27.215Z,58.50
2019-03-22T01:31:56.050Z,58.60
2019-03-22T01:34:24.317Z,59.20
2019-03-22T01:36:52.638Z,58.50
2019-03-22T01:39:20.890Z,58.40
2019-03-22T01:41:49.154Z,58.40
2019-03-22T01:44:17.417Z,58.40
2019-03-22T01:46:45.681Z,58.40
2019-03-22T01:49:13.937Z,58.40
2019-03-22T01:51:42.742Z,58.50
2019-03-22T01:54:10.999Z,58.50
2019-03-22T01:56:39.265Z,58.50
2019-03-22T01:59:07.514Z,58.60
2019-03-22T02:01:35.773Z,59.20
2019-03-22T02:04:04.031Z,58.50
2019-03-22T02:06:32.292Z,58.50
2019-03-22T02:09:00.552Z,58.50
2019-03-22T02:11:28.817Z,58.50
2019-03-22T02:13:57.155Z,58.50
2019-03-22T02:16:25.409Z,58.40
2019-03-22T02:18:53.661Z,58.40
2019-03-22T02:21:21.929Z,58.30
2019-03-22T02:23:52.092Z,58.30
2019-03-22T02:26:20.838Z,58.40
2019-03-22T02:28:49.102Z,58.50
2019-03-22T02:31:17.361Z,58.50
2019-03-22T02:33:45.627Z,58.50
2019-03-22T02:36:14.928Z,58.30
2019-03-22T02:38:43.178Z,58.20
2019-03-22T02:41:11.505Z,58.20
2019-03-22T02:43:39.796Z,58.20
2019-03-22T02:46:08.056Z,58.20
2019-03-22T02:48:36.354Z,58.20
2019-03-22T02:51:04.602Z,58.20
2019-03-22T02:53:32.865Z,58.00
2019-03-22T02:56:01.230Z,58.10
2019-03-22T02:58:29.686Z,58.00
2019-03-22T03:00:57.930Z,58.10
2019-03-22T03:03:26.195Z,58.10
2019-03-22T03:05:54.446Z,58.20
2019-03-22T03:08:22.710Z,58.20
2019-03-22T03:10:50.965Z,58.10
2019-03-22T03:13:19.226Z,58.10
2019-03-22T03:15:47.485Z,58.00
2019-03-22T03:18:15.744Z,58.00
2019-03-22T03:20:44.459Z,58.00
2019-03-22T03:23:12.731Z,58.00
2019-03-22T03:25:41.554Z,58.00
2019-03-22T03:28:09.831Z,57.90
2019-03-22T03:30:38.083Z,58.00
2019-03-22T03:33:06.366Z,57.90
2019-03-22T03:35:34.694Z,58.00
2019-03-22T03:38:02.956Z,58.00
2019-03-22T03:40:31.282Z,58.10
2019-03-22T03:42:59.554Z,58.20
2019-03-22T03:45:35.968Z,58.00
2019-03-22T03:48:10.274Z,58.00
2019-03-22T03:50:38.625Z,58.00
2019-03-22T03:53:07.227Z,57.90
2019-03-22T03:55:35.494Z,58.00
2019-03-22T03:58:05.127Z,57.90
2019-03-22T04:00:33.433Z,57.90
2019-03-22T04:03:01.863Z,57.90
2019-03-22T04:05:30.132Z,57.90
2019-03-22T04:07:58.393Z,57.90
2019-03-22T04:10:26.646Z,57.80
2019-03-22T04:12:54.904Z,57.90
2019-03-22T04:15:23.184Z,57.90
2019-03-22T04:17:51.517Z,58.00
2019-03-22T04:20:20.143Z,58.00
2019-03-22T04:22:48.404Z,58.00
2019-03-22T04:25:16.712Z,58.00
2019-03-22T04:27:45.000Z,58.50
2019-03-22T04:30:13.277Z,58.00
2019-03-22T04:32:41.537Z,57.90
2019-03-22T04:35:09.870Z,57.80
2019-03-22T04:37:38.124Z,58.00
2019-03-22T04:40:27.878Z,57.90
2019-03-22T04:42:56.199Z,57.90
2019-03-22T04:45:25.402Z,58.00
2019-03-22T04:47:59.562Z,58.00
2019-03-22T04:50:28.003Z,58.00
2019-03-22T04:52:56.255Z,58.00
2019-03-22T04:55:25.101Z,58.10
2019-03-22T04:57:53.926Z,58.00
2019-03-22T05:00:22.190Z,58.00
2019-03-22T05:02:50.926Z,58.00
2019-03-22T05:05:19.772Z,58.00
2019-03-22T05:07:48.017Z,58.00
2019-03-22T05:10:16.287Z,58.00
2019-03-22T05:12:44.538Z,57.90
2019-03-22T05:15:13.542Z,57.90
2019-03-22T05:17:42.451Z,57.90
2019-03-22T05:20:10.713Z,58.00
2019-03-22T05:22:38.974Z,57.90
2019-03-22T05:25:07.233Z,57.80
2019-03-22T05:27:35.570Z,57.80
2019-03-22T05:30:05.186Z,57.90
2019-03-22T05:32:33.446Z,57.90
2019-03-22T05:35:01.716Z,57.90
2019-03-22T05:37:29.977Z,57.90
2019-03-22T05:39:58.234Z,58.00
2019-03-22T05:42:26.493Z,57.90
2019-03-22T05:44:54.743Z,57.90
2019-03-22T05:47:23.007Z,57.90
2019-03-22T05:49:51.262Z,57.80
2019-03-22T05:52:19.525Z,57.80
2019-03-22T05:54:47.809Z,57.80
2019-03-22T05:57:16.069Z,57.80
2019-03-22T05:59:44.325Z,57.80
2019-03-22T06:02:12.604Z,57.80
2019-03-22T06:04:40.866Z,58.00
2019-03-22T06:07:09.126Z,58.40
2019-03-22T06:09:37.386Z,58.50
2019-03-22T06:12:05.649Z,58.20
2019-03-22T06:14:33.902Z,58.90
2019-03-22T06:17:02.247Z,58.40
2019-03-22T06:19:30.619Z,58.50
2019-03-22T06:21:59.154Z,58.70
2019-03-22T06:24:27.406Z,58.70
2019-03-22T06:26:55.697Z,58.50
2019-03-22T06:29:23.958Z,58.50
2019-03-22T06:31:52.215Z,58.50
2019-03-22T06:34:20.518Z,58.50
2019-03-22T06:36:48.844Z,58.40
2019-03-22T06:39:17.311Z,59.40
2019-03-22T06:41:45.666Z,59.10
2019-03-22T06:44:13.934Z,58.90
2019-03-22T06:46:42.192Z,58.70
2019-03-22T06:49:10.455Z,58.70
2019-03-22T06:51:38.717Z,59.20
2019-03-22T06:54:06.968Z,59.30
2019-03-22T06:56:35.217Z,59.40
2019-03-22T06:59:03.482Z,59.10
2019-03-22T07:01:31.730Z,58.90
2019-03-22T07:03:59.990Z,58.90
2019-03-22T07:06:28.247Z,58.90
2019-03-22T07:08:56.522Z,58.80
2019-03-22T07:11:24.769Z,59.50
2019-03-22T07:13:53.037Z,58.80
2019-03-22T07:16:21.285Z,58.80
2019-03-22T07:18:49.573Z,58.90
2019-03-22T07:21:17.826Z,58.90
2019-03-22T07:23:46.166Z,59.10
2019-03-22T07:26:14.422Z,59.10
2019-03-22T07:28:42.699Z,58.90
2019-03-22T07:31:10.963Z,58.30
2019-03-22T07:33:39.235Z,57.30
2019-03-22T07:36:07.498Z,56.90
2019-03-22T07:38:35.774Z,56.00
2019-03-22T07:41:04.033Z,55.70
2019-03-22T07:43:32.307Z,55.80
2019-03-22T07:46:00.566Z,55.40
2019-03-22T07:48:28.840Z,55.60
2019-03-22T07:50:57.163Z,55.70
2019-03-22T07:53:25.494Z,55.50
2019-03-22T07:55:53.750Z,55.20
2019-03-22T07:58:22.024Z,55.00
2019-03-22T08:00:50.277Z,55.60
2019-03-22T08:03:18.541Z,56.00
2019-03-22T08:05:51.539Z,54.80
2019-03-22T08:08:16.797Z,55.10
2019-03-22T08:10:45.073Z,55.20
2019-03-22T08:13:13.335Z,54.90
2019-03-22T08:15:41.608Z,54.90
2019-03-22T08:18:09.868Z,55.50
2019-03-22T08:20:38.939Z,55.60
2019-03-22T08:23:22.962Z,55.60
2019-03-22T08:25:51.536Z,55.50
2019-03-22T08:28:19.846Z,55.10
2019-03-22T08:30:48.389Z,55.00
2019-03-22T08:33:16.710Z,54.80
2019-03-22T08:35:44.973Z,54.80
2019-03-22T08:38:13.230Z,54.70
2019-03-22T08:40:44.568Z,54.70
2019-03-22T08:43:13.477Z,54.30
2019-03-22T08:45:41.798Z,54.30
2019-03-22T08:48:10.389Z,54.30
2019-03-22T08:50:38.685Z,54.30
2019-03-22T08:53:06.997Z,54.30
2019-03-22T08:55:35.278Z,54.50
2019-03-22T08:58:03.542Z,54.50
2019-03-22T09:00:39.225Z,54.80
2019-03-22T09:03:01.910Z,55.00
2019-03-22T09:05:33.266Z,55.10
2019-03-22T09:08:01.542Z,55.20
2019-03-22T09:10:29.891Z,55.30
2019-03-22T09:12:58.246Z,55.40
2019-03-22T09:15:26.558Z,55.40
2019-03-22T09:17:54.838Z,55.40
2019-03-22T09:20:23.591Z,55.60
2019-03-22T09:22:51.937Z,55.70
2019-03-22T09:25:20.976Z,56.50
2019-03-22T09:27:49.310Z,57.10
2019-03-22T09:30:17.599Z,57.10
2019-03-22T09:32:45.978Z,57.40
2019-03-22T09:35:14.278Z,57.40
2019-03-22T09:37:43.162Z,57.70
2019-03-22T09:40:11.499Z,58.10
2019-03-22T09:42:39.862Z,58.20
2019-03-22T09:45:09.033Z,58.50
2019-03-22T09:47:37.432Z,58.80
2019-03-22T09:50:11.653Z,59.20
2019-03-22T09:52:39.925Z,58.50
2019-03-22T09:55:13.949Z,58.30
2019-03-22T09:57:38.186Z,58.40
2019-03-22T10:00:18.486Z,58.40
2019-03-22T10:02:46.746Z,58.70
2019-03-22T10:05:15.004Z,58.60
2019-03-22T10:07:43.278Z,58.80
2019-03-22T10:10:11.543Z,59.30
2019-03-22T10:12:39.868Z,59.00
2019-03-22T10:15:08.149Z,59.40
2019-03-22T10:17:36.419Z,59.20
2019-03-22T10:20:06.021Z,59.60
2019-03-22T10:22:34.917Z,59.00
2019-03-22T10:25:04.692Z,59.20
2019-03-22T10:27:33.021Z,59.10
2019-03-22T10:30:01.324Z,59.20
2019-03-22T10:32:29.594Z,59.30
2019-03-22T10:34:57.918Z,59.30
2019-03-22T10:37:26.186Z,60.00
2019-03-22T10:39:54.510Z,59.50
2019-03-22T10:42:22.840Z,59.80
2019-03-22T10:44:51.167Z,59.90
2019-03-22T10:47:19.660Z,59.80
2019-03-22T10:49:47.977Z,59.60
2019-03-22T10:52:16.291Z,59.60
2019-03-22T10:54:44.632Z,59.50
2019-03-22T10:57:12.958Z,59.60
2019-03-22T10:59:41.281Z,59.60
2019-03-22T11:02:09.550Z,59.50
2019-03-22T11:04:37.852Z,59.40
2019-03-22T11:07:07.926Z,59.40
2019-03-22T11:09:36.183Z,59.50
2019-03-22T11:12:12.084Z,59.40
2019-03-22T11:14:35.030Z,59.40
2019-03-22T11:17:03.313Z,59.40
2019-03-22T11:19:31.557Z,59.30
2019-03-22T11:21:59.829Z,59.30
2019-03-22T11:24:28.094Z,59.30
2019-03-22T11:26:56.357Z,59.30
2019-03-22T11:29:24.618Z,59.30
2019-03-22T11:31:52.898Z,59.20
2019-03-22T11:34:21.162Z,59.30
2019-03-22T11:36:49.994Z,59.30
2019-03-22T11:39:18.270Z,59.30
2019-03-22T11:41:47.234Z,59.30
2019-03-22T11:44:15.509Z,59.30
2019-03-22T11:46:43.774Z,59.40
2019-03-22T11:49:12.044Z,59.60
2019-03-22T11:51:40.902Z,59.60
2019-03-22T11:54:09.174Z,59.50
2019-03-22T11:56:37.447Z,59.50
2019-03-22T11:59:05.720Z,59.20
2019-03-22T12:01:33.978Z,59.20
2019-03-22T12:04:02.249Z,59.20
2019-03-22T12:06:30.511Z,59.30
2019-03-22T12:08:58.774Z,59.20
2019-03-22T12:11:27.349Z,59.20
2019-03-22T12:13:55.622Z,59.30
2019-03-22T12:16:23.877Z,59.40
2019-03-22T12:18:52.150Z,59.80
2019-03-22T12:21:20.579Z,59.70
2019-03-22T12:23:48.845Z,59.60
2019-03-22T12:26:17.105Z,59.60
2019-03-22T12:28:45.957Z,59.80
2019-03-22T12:31:14.222Z,62.00
2019-03-22T12:33:42.508Z,60.60
2019-03-22T12:36:10.765Z,61.50
2019-03-22T12:38:39.109Z,61.10
2019-03-22T12:41:07.374Z,60.90
2019-03-22T12:43:35.650Z,60.70
2019-03-22T12:46:03.906Z,60.70
2019-03-22T12:48:32.501Z,60.90
2019-03-22T12:51:00.768Z,60.80
2019-03-22T12:53:29.032Z,60.90
2019-03-22T12:55:57.301Z,61.30
2019-03-22T12:58:25.562Z,61.70
2019-03-22T13:00:54.086Z,61.90
2019-03-22T13:03:24.381Z,61.90
2019-03-22T13:05:53.194Z,62.20
2019-03-22T13:08:21.449Z,62.20
2019-03-22T13:10:49.735Z,62.30
2019-03-22T13:13:17.998Z,63.00
2019-03-22T13:15:46.278Z,63.10
2019-03-22T13:18:14.543Z,62.90
2019-03-22T13:20:42.797Z,62.80
2019-03-22T13:23:11.067Z,63.80
2019-03-22T13:25:39.333Z,63.20
2019-03-22T13:28:07.673Z,63.20
2019-03-22T13:30:36.577Z,63.40
2019-03-22T13:33:05.105Z,64.40
2019-03-22T13:35:33.372Z,65.30
2019-03-22T13:38:01.633Z,65.40
2019-03-22T13:40:29.904Z,64.30
2019-03-22T13:42:58.328Z,63.80
2019-03-22T13:45:26.605Z,63.60
2019-03-22T13:47:54.936Z,63.40
2019-03-22T13:50:23.291Z,63.50
2019-03-22T13:52:51.549Z,63.80
2019-03-22T13:55:19.827Z,63.80
2019-03-22T13:57:48.082Z,63.60
2019-03-22T14:00:18.557Z,63.20
2019-03-22T14:02:46.821Z,63.10
2019-03-22T14:05:15.163Z,63.00
2019-03-22T14:07:43.427Z,63.00
2019-03-22T14:10:17.938Z,63.10
2019-03-22T14:12:46.199Z,63.10
2019-03-22T14:15:14.473Z,63.10
2019-03-22T14:17:42.729Z,63.10
2019-03-22T14:20:11.760Z,63.10
2019-03-22T14:22:40.154Z,63.30
2019-03-22T14:25:08.429Z,63.20
2019-03-22T14:27:36.698Z,63.40
2019-03-22T14:30:07.361Z,63.30
2019-03-22T14:32:35.642Z,63.40
2019-03-22T14:35:06.046Z,63.30
2019-03-22T14:37:34.309Z,63.30
2019-03-22T14:40:02.574Z,63.30
2019-03-22T14:42:30.849Z,63.40
2019-03-22T14:44:59.107Z,63.20
2019-03-22T14:47:27.634Z,63.40
2019-03-22T14:49:55.902Z,63.30
2019-03-22T14:52:24.187Z,63.40
2019-03-22T14:54:52.779Z,63.40
2019-03-22T14:57:21.055Z,63.30
2019-03-22T14:59:58.545Z,63.30
2019-03-22T15:02:19.317Z,63.30
2019-03-22T15:04:47.578Z,63.30
2019-03-22T15:07:19.986Z,63.40
2019-03-22T15:09:46.350Z,63.20
2019-03-22T15:12:14.774Z,63.10
2019-03-22T15:14:47.382Z,63.30
2019-03-22T15:17:22.980Z,63.40
2019-03-22T15:20:07.866Z,63.20
2019-03-22T15:22:40.786Z,63.20
2019-03-22T15:25:13.634Z,63.20
2019-03-22T15:28:00.028Z,63.30
2019-03-22T15:30:48.122Z,63.30
2019-03-22T15:33:20.736Z,63.30
2019-03-22T15:35:56.450Z,63.20
2019-03-22T15:38:42.784Z,63.30
2019-03-22T15:41:11.142Z,63.30
2019-03-22T15:43:39.411Z,63.30
2019-03-22T15:46:07.666Z,63.30
2019-03-22T15:48:36.214Z,63.30
2019-03-22T15:51:04.477Z,63.30
2019-03-22T15:53:32.750Z,63.20
2019-03-22T15:56:01.067Z,63.20
2019-03-22T15:58:29.338Z,63.10
2019-03-22T16:00:57.590Z,63.10
2019-03-22T16:03:25.867Z,63.00
2019-03-22T16:05:54.130Z,62.90
2019-03-22T16:08:22.393Z,62.80
2019-03-22T16:10:50.652Z,62.90
2019-03-22T16:13:18.930Z,62.80
2019-03-22T16:15:47.194Z,62.80
2019-03-22T16:18:15.469Z,62.90
2019-03-22T16:20:43.726Z,62.80
2019-03-22T16:23:12.008Z,62.80
2019-03-22T16:25:40.254Z,62.70
2019-03-22T16:28:08.525Z,62.70
2019-03-22T16:30:36.786Z,62.70
2019-03-22T16:33:05.051Z,62.70
2019-03-22T16:35:33.321Z,62.70
2019-03-22T16:38:01.646Z,62.70
2019-03-22T16:40:29.914Z,62.50
2019-03-22T16:42:58.186Z,62.70
2019-03-22T16:45:35.041Z,62.70
2019-03-22T16:48:03.626Z,62.50
2019-03-22T16:50:31.900Z,62.50
2019-03-22T16:53:00.235Z,62.60
2019-03-22T16:55:28.478Z,62.50
2019-03-22T16:57:57.415Z,62.60
2019-03-22T17:00:25.676Z,62.60
2019-03-22T17:02:53.995Z,62.60
2019-03-22T17:05:22.257Z,62.70
2019-03-22T17:07:50.798Z,62.70
2019-03-22T17:10:19.086Z,62.70
2019-03-22T17:12:47.339Z,62.70
2019-03-22T17:15:15.617Z,62.70
2019-03-22T17:17:43.885Z,62.70
2019-03-22T17:20:12.192Z,62.70
2019-03-22T17:22:40.454Z,62.70
2019-03-22T17:25:08.722Z,62.60
2019-03-22T17:27:37.032Z,62.50
2019-03-22T17:30:06.464Z,62.60
2019-03-22T17:32:34.728Z,62.40
2019-03-22T17:35:03.262Z,62.40
2019-03-22T17:37:31.517Z,62.50
2019-03-22T17:39:59.830Z,62.40
2019-03-22T17:42:28.120Z,62.40
2019-03-22T17:44:56.386Z,62.40
2019-03-22T17:47:24.653Z,62.40
2019-03-22T17:49:52.915Z,62.40
2019-03-22T17:52:21.446Z,62.30
2019-03-22T17:54:49.782Z,62.20
2019-03-22T17:57:18.915Z,62.30
2019-03-22T17:59:47.461Z,62.20
2019-03-22T18:02:15.733Z,62.30
2019-03-22T18:04:44.014Z,62.20
2019-03-22T18:07:12.266Z,62.20
2019-03-22T18:09:40.560Z,62.20
2019-03-22T18:12:08.869Z,62.30
2019-03-22T18:14:37.134Z,62.20
2019-03-22T18:17:05.386Z,62.20
2019-03-22T18:19:33.664Z,62.20
2019-03-22T18:22:01.923Z,62.10
2019-03-22T18:24:30.201Z,62.10
2019-03-22T18:26:58.479Z,62.10
2019-03-22T18:29:27.058Z,62.10
2019-03-22T18:31:55.442Z,62.10
2019-03-22T18:34:33.684Z,62.10
2019-03-22T18:36:53.697Z,62.10
2019-03-22T18:39:21.986Z,62.00
2019-03-22T18:41:50.306Z,62.10
2019-03-22T18:44:18.574Z,62.20
2019-03-22T18:46:46.843Z,62.10
2019-03-22T18:49:15.362Z,62.00
2019-03-22T18:51:43.623Z,61.90
2019-03-22T18:54:11.889Z,61.90
2019-03-22T18:56:40.186Z,62.00
2019-03-22T18:59:08.446Z,62.10
2019-03-22T19:01:36.709Z,62.00
2019-03-22T19:04:05.174Z,62.00
2019-03-22T19:06:33.462Z,61.90
2019-03-22T19:09:01.718Z,62.10
2019-03-22T19:11:29.986Z,62.30
2019-03-22T19:13:58.250Z,62.00
2019-03-22T19:16:26.799Z,62.00
2019-03-22T19:18:55.054Z,62.10
2019-03-22T19:21:23.322Z,62.10
2019-03-22T19:23:51.577Z,62.20
2019-03-22T19:26:19.856Z,62.20
2019-03-22T19:28:48.202Z,62.10
2019-03-22T19:31:16.643Z,62.00
2019-03-22T19:33:44.905Z,62.10
2019-03-22T19:36:13.161Z,62.10
2019-03-22T19:38:41.429Z,62.10
2019-03-22T19:41:09.684Z,61.90
2019-03-22T19:43:37.967Z,61.90
2019-03-22T19:46:06.234Z,61.90
2019-03-22T19:48:34.536Z,61.90
2019-03-22T19:51:02.793Z,61.90
2019-03-22T19:53:31.057Z,62.10
2019-03-22T19:55:59.314Z,61.90
2019-03-22T19:58:27.579Z,62.00
2019-03-22T20:00:55.842Z,62.00
2019-03-22T20:03:24.113Z,62.00
2019-03-22T20:05:52.371Z,62.10
2019-03-22T20:08:20.638Z,62.10
2019-03-22T20:10:48.894Z,62.00
2019-03-22T20:13:17.161Z,62.00
2019-03-22T20:15:45.419Z,61.90
2019-03-22T20:18:13.688Z,61.90
2019-03-22T20:20:41.997Z,61.90
2019-03-22T20:23:10.273Z,61.90
2019-03-22T20:25:38.522Z,61.90
2019-03-22T20:28:06.799Z,61.90
2019-03-22T20:30:35.054Z,61.90
2019-03-22T20:33:03.637Z,61.90
2019-03-22T20:35:31.897Z,61.90
2019-03-22T20:38:00.197Z,61.80
2019-03-22T20:40:28.458Z,61.90
2019-03-22T20:42:56.707Z,61.90
2019-03-22T20:45:24.978Z,61.90
2019-03-22T20:47:54.157Z,62.50
2019-03-22T20:50:22.417Z,61.80
2019-03-22T20:52:50.672Z,61.80
2019-03-22T20:55:18.934Z,61.70
2019-03-22T20:57:47.203Z,61.70
2019-03-22T21:00:16.701Z,61.60
2019-03-22T21:02:44.961Z,61.70
2019-03-22T21:05:13.235Z,61.70
2019-03-22T21:07:41.512Z,61.70
2019-03-22T21:10:10.324Z,61.70
2019-03-22T21:12:38.575Z,61.60
2019-03-22T21:15:08.782Z,61.60
2019-03-22T21:17:37.033Z,61.70
2019-03-22T21:20:09.103Z,61.60
2019-03-22T21:22:37.354Z,61.70
2019-03-22T21:25:06.661Z,61.60
2019-03-22T21:27:34.926Z,61.50
2019-03-22T21:30:05.134Z,61.50
2019-03-22T21:32:33.397Z,61.40
2019-03-22T21:35:01.674Z,61.50
2019-03-22T21:37:29.952Z,61.30
2019-03-22T21:39:58.217Z,61.40
2019-03-22T21:42:26.479Z,61.50
2019-03-22T21:44:54.742Z,61.40
2019-03-22T21:47:22.995Z,61.30
2019-03-22T21:49:51.270Z,61.20
2019-03-22T21:52:19.521Z,61.30
2019-03-22T21:54:47.806Z,61.20
2019-03-22T21:57:16.057Z,61.20
2019-03-22T21:59:44.321Z,61.20
2019-03-22T22:02:12.596Z,61.10
2019-03-22T22:04:40.855Z,61.20
2019-03-22T22:07:09.122Z,61.20
2019-03-22T22:09:37.382Z,61.10
2019-03-22T22:12:05.642Z,61.00
2019-03-22T22:14:40.704Z,61.00
2019-03-22T22:17:04.197Z,61.00
2019-03-22T22:19:32.475Z,60.90
2019-03-22T22:22:00.754Z,60.90
2019-03-22T22:24:29.330Z,61.00
2019-03-22T22:26:57.673Z,60.90
2019-03-22T22:29:26.033Z,61.00
2019-03-22T22:31:54.306Z,61.00
2019-03-22T22:34:22.557Z,60.90
2019-03-22T22:36:50.826Z,61.00
2019-03-22T22:39:19.091Z,61.00
2019-03-22T22:41:47.358Z,61.00
2019-03-22T22:44:15.607Z,61.10
2019-03-22T22:46:43.875Z,61.00
2019-03-22T22:49:12.130Z,61.90
2019-03-22T22:51:40.398Z,60.90
2019-03-22T22:54:08.646Z,60.90
2019-03-22T22:56:36.915Z,60.90
2019-03-22T22:59:05.172Z,60.90
2019-03-22T23:01:33.430Z,60.90
2019-03-22T23:04:01.686Z,61.00
2019-03-22T23:06:29.970Z,61.30
2019-03-22T23:08:58.217Z,61.00
2019-03-22T23:11:26.471Z,61.00
2019-03-22T23:13:54.738Z,61.00
2019-03-22T23:16:23.007Z,60.90
2019-03-22T23:18:51.268Z,60.90
2019-03-22T23:21:19.517Z,61.00
2019-03-22T23:23:47.782Z,61.00
2019-03-22T23:26:16.063Z,60.90
2019-03-22T23:28:44.435Z,60.90
2019-03-22T23:31:12.708Z,60.80
2019-03-22T23:33:40.966Z,60.80
2019-03-22T23:36:19.575Z,60.70
2019-03-22T23:38:39.202Z,60.80
2019-03-22T23:41:07.465Z,60.90
2019-03-22T23:43:35.744Z,61.20
2019-03-22T23:46:04.262Z,60.90
2019-03-22T23:48:32.529Z,60.80
2019-03-22T23:51:00.785Z,60.80
2019-03-22T23:53:29.050Z,60.90
2019-03-22T23:55:57.301Z,60.90
2019-03-22T23:58:25.567Z,61.60
